createdAt,value
2022-09-24T00:01:28.953Z,4.80
2022-09-24T00:04:00.476Z,4.32
2022-09-24T00:08:55.993Z,4.10
2022-09-24T00:11:24.719Z,4.97
2022-09-24T00:13:53.180Z,5.07
2022-09-24T00:16:22.765Z,4.63
2022-09-24T00:18:49.906Z,4.30
2022-09-24T00:21:24.218Z,4.53
2022-09-24T00:23:57.098Z,4.25
2022-09-24T00:26:43.147Z,4.68
2022-09-24T00:29:12.213Z,5.10
2022-09-24T00:31:38.964Z,4.38
2022-09-24T00:34:06.097Z,4.70
2022-09-24T00:36:33.132Z,4.72
2022-09-24T00:39:00.509Z,5.40
2022-09-24T00:41:30.206Z,5.00
2022-09-24T00:43:58.229Z,4.53
2022-09-24T00:46:44.765Z,4.80
2022-09-24T00:49:15.286Z,4.47
2022-09-24T00:51:45.004Z,5.15
2022-09-24T00:54:17.315Z,4.97
2022-09-24T00:56:45.431Z,5.15
2022-09-24T00:59:17.057Z,6.60
2022-09-24T01:04:12.751Z,4.88
2022-09-24T01:06:39.522Z,5.13
2022-09-24T01:09:06.363Z,5.80
2022-09-24T01:12:08.525Z,5.82
2022-09-24T01:14:50.154Z,5.25
2022-09-24T01:17:45.974Z,5.43
2022-09-24T01:20:18.654Z,4.93
2022-09-24T01:23:23.203Z,5.30
2022-09-24T01:26:05.377Z,5.22
2022-09-24T01:28:51.891Z,5.80
2022-09-24T01:31:46.937Z,5.13
2022-09-24T01:34:20.489Z,5.30
2022-09-24T01:36:48.560Z,5.53
2022-09-24T01:39:16.029Z,5.50
2022-09-24T01:41:44.299Z,5.43
2022-09-24T01:44:12.298Z,4.57
2022-09-24T01:46:41.162Z,5.03
2022-09-24T01:49:08.851Z,4.70
2022-09-24T01:51:52.545Z,5.10
2022-09-24T01:54:35.127Z,5.53
2022-09-24T01:57:05.758Z,5.70
2022-09-24T01:59:39.084Z,5.10
2022-09-24T02:02:12.083Z,5.13
2022-09-24T02:04:45.305Z,5.20
2022-09-24T02:07:22.154Z,4.60
2022-09-24T02:09:49.412Z,4.95
2022-09-24T02:12:29.755Z,4.90
2022-09-24T02:15:18.278Z,5.35
2022-09-24T02:17:50.849Z,4.82
2022-09-24T02:20:22.085Z,4.97
2022-09-24T02:22:50.229Z,4.32
2022-09-24T02:25:22.793Z,4.85
2022-09-24T02:27:49.487Z,4.75
2022-09-24T02:30:17.086Z,4.75
2022-09-24T02:32:44.845Z,4.47
2022-09-24T02:35:13.099Z,4.65
2022-09-24T02:37:42.738Z,4.90
2022-09-24T02:40:12.669Z,4.97
2022-09-24T02:42:41.221Z,4.60
2022-09-24T02:45:09.021Z,5.00
2022-09-24T02:47:35.990Z,4.47
2022-09-24T02:50:02.888Z,5.22
2022-09-24T02:52:29.604Z,5.13
2022-09-24T02:54:56.728Z,4.97
2022-09-24T02:57:23.417Z,5.40
2022-09-24T02:59:50.087Z,5.22
2022-09-24T03:02:17.010Z,4.95
2022-09-24T03:04:43.895Z,4.88
2022-09-24T03:07:11.582Z,5.65
2022-09-24T03:09:38.344Z,4.47
2022-09-24T03:12:05.281Z,4.90
2022-09-24T03:14:32.060Z,4.38
2022-09-24T03:16:58.821Z,4.80
2022-09-24T03:19:25.511Z,4.75
2022-09-24T03:21:52.199Z,4.65
2022-09-24T03:24:18.934Z,4.15
2022-09-24T03:26:45.907Z,4.70
2022-09-24T03:29:12.636Z,4.00
2022-09-24T03:31:39.380Z,4.28
2022-09-24T03:34:06.149Z,3.92
2022-09-24T03:36:32.841Z,3.83
2022-09-24T03:38:59.535Z,3.85
2022-09-24T03:41:27.824Z,4.22
2022-09-24T03:43:55.106Z,4.05
2022-09-24T03:46:22.234Z,3.67
2022-09-24T03:48:49.264Z,4.25
2022-09-24T03:51:21.530Z,4.45
2022-09-24T03:53:48.766Z,4.50
2022-09-24T03:56:16.181Z,4.28
2022-09-24T03:58:48.373Z,4.88
2022-09-24T04:01:21.702Z,4.13
2022-09-24T04:03:50.370Z,4.70
2022-09-24T04:06:20.702Z,3.72
2022-09-24T04:08:50.321Z,4.55
2022-09-24T04:11:17.188Z,5.43
2022-09-24T04:13:43.981Z,5.03
2022-09-24T04:16:10.750Z,5.07
2022-09-24T04:18:39.442Z,5.78
2022-09-24T04:21:06.564Z,5.32
2022-09-24T04:23:33.527Z,4.97
2022-09-24T04:26:03.457Z,4.38
2022-09-24T04:28:30.796Z,4.10
2022-09-24T04:30:58.454Z,4.72
2022-09-24T04:33:25.217Z,4.63
2022-09-24T04:35:52.166Z,4.72
2022-09-24T04:38:21.462Z,4.70
2022-09-24T04:40:49.279Z,4.70
2022-09-24T04:43:16.002Z,4.57
2022-09-24T04:45:45.939Z,4.60
2022-09-24T04:48:13.274Z,4.65
2022-09-24T04:50:44.973Z,9.35
2022-09-24T04:53:12.748Z,20.17
2022-09-24T04:55:39.827Z,10.82
2022-09-24T04:58:06.620Z,9.85
2022-09-24T05:00:33.676Z,10.77
2022-09-24T05:03:03.813Z,11.27
2022-09-24T05:05:32.469Z,12.73
2022-09-24T05:07:59.331Z,13.23
2022-09-24T05:10:26.897Z,15.55
2022-09-24T05:12:54.045Z,14.25
2022-09-24T05:15:21.219Z,14.40
2022-09-24T05:17:48.193Z,15.55
2022-09-24T05:20:16.924Z,13.65
2022-09-24T05:22:45.411Z,12.82
2022-09-24T05:25:14.210Z,12.30
2022-09-24T05:27:55.045Z,11.35
2022-09-24T05:30:24.626Z,12.07
2022-09-24T05:32:54.490Z,10.32
2022-09-24T05:35:23.170Z,10.93
2022-09-24T05:37:53.611Z,11.52
2022-09-24T05:40:39.345Z,11.88
2022-09-24T05:43:06.537Z,10.80
2022-09-24T05:45:33.433Z,11.02
2022-09-24T05:48:00.409Z,7.97
2022-09-24T05:50:27.863Z,6.15
2022-09-24T05:52:55.051Z,5.65
2022-09-24T05:55:21.799Z,6.10
2022-09-24T05:57:49.160Z,5.47
2022-09-24T06:00:16.147Z,6.40
2022-09-24T06:02:42.905Z,6.45
2022-09-24T06:05:10.267Z,8.55
2022-09-24T06:07:37.156Z,18.75
2022-09-24T06:10:05.532Z,15.50
2022-09-24T06:12:35.159Z,12.93
2022-09-24T06:15:02.907Z,10.30
2022-09-24T06:17:32.794Z,8.40
2022-09-24T06:19:59.607Z,7.53
2022-09-24T06:22:28.761Z,8.77
2022-09-24T06:24:56.555Z,7.63
2022-09-24T06:27:23.413Z,8.80
2022-09-24T06:29:50.641Z,8.50
2022-09-24T06:32:18.916Z,10.73
2022-09-24T06:34:45.911Z,8.50
2022-09-24T06:37:12.634Z,5.15
2022-09-24T06:39:39.333Z,4.30
2022-09-24T06:42:07.226Z,3.47
2022-09-24T06:44:34.804Z,3.00
2022-09-24T06:47:02.017Z,2.88
2022-09-24T06:49:33.758Z,3.20
2022-09-24T06:52:00.999Z,2.45
2022-09-24T06:54:27.743Z,3.08
2022-09-24T06:56:54.531Z,2.47
2022-09-24T06:59:21.203Z,3.15
2022-09-24T07:01:47.928Z,2.80
2022-09-24T07:04:14.630Z,2.65
2022-09-24T07:07:00.037Z,2.22
2022-09-24T07:09:26.712Z,2.08
2022-09-24T07:11:55.000Z,1.73
2022-09-24T07:14:21.710Z,2.15
2022-09-24T07:16:48.513Z,2.05
2022-09-24T07:19:15.194Z,2.17
2022-09-24T07:21:41.858Z,1.85
2022-09-24T07:24:08.617Z,2.13
2022-09-24T07:26:35.445Z,1.80
2022-09-24T07:29:02.652Z,2.17
2022-09-24T07:31:30.372Z,2.13
2022-09-24T07:33:57.489Z,2.50
2022-09-24T07:36:24.273Z,4.25
2022-09-24T07:38:51.164Z,2.00
2022-09-24T07:41:18.409Z,1.88
2022-09-24T07:43:45.595Z,1.77
2022-09-24T07:46:12.414Z,2.22
2022-09-24T07:48:45.762Z,2.22
2022-09-24T07:51:12.570Z,1.80
2022-09-24T07:53:39.324Z,1.73
2022-09-24T07:56:06.302Z,1.73
2022-09-24T07:58:33.022Z,1.83
2022-09-24T08:01:01.561Z,2.40
2022-09-24T08:03:28.489Z,2.53
2022-09-24T08:05:59.980Z,3.22
2022-09-24T08:10:53.429Z,3.30
2022-09-24T08:13:25.244Z,2.90
2022-09-24T08:16:00.093Z,2.25
2022-09-24T08:18:27.669Z,2.00
2022-09-24T08:20:54.732Z,2.17
2022-09-24T08:23:21.616Z,2.20
2022-09-24T08:25:48.263Z,4.30
2022-09-24T08:28:17.214Z,4.13
2022-09-24T08:30:44.486Z,10.45
2022-09-24T08:33:11.263Z,17.77
2022-09-24T08:35:41.489Z,40.75
2022-09-24T08:38:09.270Z,17.07
2022-09-24T08:41:26.100Z,18.33
2022-09-24T08:44:52.834Z,20.23
2022-09-24T08:47:48.461Z,22.35
2022-09-24T08:50:27.008Z,29.98
2022-09-24T08:53:12.840Z,11.70
2022-09-24T08:55:55.823Z,2.08
2022-09-24T08:58:51.249Z,2.90
2022-09-24T09:01:27.575Z,2.38
2022-09-24T09:04:12.425Z,7.10
2022-09-24T09:06:54.109Z,4.20
2022-09-24T09:09:39.898Z,3.95
2022-09-24T09:12:14.371Z,3.42
2022-09-24T09:14:54.542Z,5.10
2022-09-24T09:17:31.447Z,4.85
2022-09-24T09:20:01.968Z,4.25
2022-09-24T09:22:35.871Z,6.55
2022-09-24T09:25:19.915Z,4.53
2022-09-24T09:27:51.466Z,4.53
2022-09-24T09:30:21.974Z,3.92
2022-09-24T09:32:48.625Z,3.80
2022-09-24T09:35:54.126Z,2.80
2022-09-24T09:38:42.091Z,4.18
2022-09-24T09:41:41.575Z,4.05
2022-09-24T09:44:16.476Z,4.10
2022-09-24T09:46:50.030Z,2.70
2022-09-24T09:49:18.493Z,2.10
2022-09-24T09:51:48.869Z,2.17
2022-09-24T09:54:15.631Z,1.70
2022-09-24T09:56:45.805Z,2.97
2022-09-24T09:59:12.445Z,1.83
2022-09-24T10:01:42.312Z,3.78
2022-09-24T10:04:30.955Z,3.17
2022-09-24T10:07:13.255Z,1.90
2022-09-24T10:09:42.290Z,2.10
2022-09-24T10:12:14.927Z,1.85
2022-09-24T10:14:42.633Z,2.25
2022-09-24T10:17:19.407Z,2.28
2022-09-24T10:19:48.014Z,2.00
2022-09-24T10:22:24.828Z,1.67
2022-09-24T10:24:52.802Z,1.80
2022-09-24T10:27:37.489Z,3.03
2022-09-24T10:30:34.706Z,2.40
2022-09-24T10:33:04.630Z,4.95
2022-09-24T10:35:35.955Z,2.13
2022-09-24T10:40:39.568Z,5.30
2022-09-24T10:43:07.674Z,2.83
2022-09-24T10:45:52.604Z,3.78
2022-09-24T10:48:27.042Z,7.70
2022-09-24T10:51:02.388Z,6.88
2022-09-24T10:53:46.846Z,4.85
2022-09-24T10:56:45.300Z,3.65
2022-09-24T10:59:43.725Z,2.17
2022-09-24T11:02:10.399Z,3.03
2022-09-24T11:04:58.660Z,2.30
2022-09-24T11:07:54.760Z,1.80
2022-09-24T11:10:46.641Z,4.93
2022-09-24T11:13:32.080Z,3.38
2022-09-24T11:16:36.020Z,2.55
2022-09-24T11:19:14.598Z,2.00
2022-09-24T11:22:14.937Z,1.77
2022-09-24T11:25:38.242Z,2.30
2022-09-24T11:28:41.288Z,2.35
2022-09-24T11:31:22.568Z,1.98
2022-09-24T11:34:01.210Z,1.85
2022-09-24T11:36:46.315Z,1.85
2022-09-24T11:39:39.140Z,1.98
2022-09-24T11:42:22.450Z,1.50
2022-09-24T11:44:55.212Z,3.35
2022-09-24T11:48:11.714Z,2.78
2022-09-24T11:51:06.201Z,2.08
2022-09-24T11:53:37.933Z,1.95
2022-09-24T11:56:22.847Z,1.90
2022-09-24T11:59:02.648Z,2.85
2022-09-24T12:01:33.606Z,2.42
2022-09-24T12:04:10.647Z,1.70
2022-09-24T12:06:56.316Z,1.73
2022-09-24T12:09:28.822Z,1.40
2022-09-24T12:12:12.840Z,1.65
2022-09-24T12:14:57.599Z,1.83
2022-09-24T12:17:32.290Z,1.50
2022-09-24T12:20:23.678Z,1.73
2022-09-24T12:23:00.173Z,10.13
2022-09-24T12:25:31.645Z,2.38
2022-09-24T12:30:55.894Z,1.58
2022-09-24T12:33:34.681Z,1.50
2022-09-24T12:36:22.697Z,1.65
2022-09-24T12:38:57.286Z,1.60
2022-09-24T12:41:36.247Z,1.73
2022-09-24T12:44:12.098Z,1.70
2022-09-24T12:46:50.926Z,1.58
2022-09-24T12:49:17.657Z,1.92
2022-09-24T12:51:44.440Z,4.38
2022-09-24T12:54:29.877Z,12.25
2022-09-24T12:57:26.059Z,2.33
2022-09-24T13:00:01.679Z,1.85
2022-09-24T13:02:50.845Z,1.30
2022-09-24T13:05:23.393Z,1.98
2022-09-24T13:08:02.344Z,1.70
2022-09-24T13:10:32.063Z,1.50
2022-09-24T13:13:00.387Z,1.73
2022-09-24T13:15:37.042Z,2.38
2022-09-24T13:18:04.498Z,1.40
2022-09-24T13:20:32.692Z,1.98
2022-09-24T13:23:15.044Z,1.60
2022-09-24T13:25:42.214Z,1.80
2022-09-24T13:28:38.360Z,1.77
2022-09-24T13:31:30.156Z,1.45
2022-09-24T13:34:19.163Z,1.70
2022-09-24T13:37:00.220Z,1.80
2022-09-24T13:39:41.084Z,1.65
2022-09-24T13:42:13.589Z,2.47
2022-09-24T13:44:43.736Z,1.60
2022-09-24T13:47:22.532Z,2.08
2022-09-24T13:49:51.993Z,1.48
2022-09-24T13:52:27.601Z,1.60
2022-09-24T13:55:00.847Z,1.77
2022-09-24T13:57:29.128Z,1.50
2022-09-24T14:00:15.625Z,1.42
2022-09-24T14:03:04.493Z,1.80
2022-09-24T14:05:36.146Z,2.15
2022-09-24T14:08:13.059Z,1.48
2022-09-24T14:10:40.344Z,1.67
2022-09-24T14:13:17.627Z,1.77
2022-09-24T14:15:59.049Z,1.50
2022-09-24T14:18:28.084Z,1.70
2022-09-24T14:21:10.632Z,4.95
2022-09-24T14:23:45.939Z,1.88
2022-09-24T14:26:39.984Z,2.13
2022-09-24T14:29:13.799Z,2.05
2022-09-24T14:32:00.166Z,3.28
2022-09-24T14:34:39.148Z,2.80
2022-09-24T14:37:08.950Z,4.53
2022-09-24T14:39:41.797Z,1.88
2022-09-24T14:42:28.502Z,2.22
2022-09-24T14:44:56.091Z,2.03
2022-09-24T14:47:34.389Z,2.95
2022-09-24T14:50:04.243Z,1.95
2022-09-24T14:52:39.630Z,1.83
2022-09-24T14:55:17.630Z,1.88
2022-09-24T14:57:48.961Z,2.17
2022-09-24T15:00:49.302Z,4.00
2022-09-24T15:03:20.825Z,1.40
2022-09-24T15:05:47.903Z,1.90
2022-09-24T15:08:24.063Z,2.08
2022-09-24T15:11:02.211Z,2.10
2022-09-24T15:13:31.932Z,2.90
2022-09-24T15:16:30.639Z,2.35
2022-09-24T15:19:28.255Z,1.85
2022-09-24T15:21:58.883Z,2.67
2022-09-24T15:24:26.267Z,2.55
2022-09-24T15:27:05.574Z,2.88
2022-09-24T15:29:32.961Z,2.20
2022-09-24T15:31:59.943Z,2.00
2022-09-24T15:34:27.584Z,2.10
2022-09-24T15:36:59.245Z,2.67
2022-09-24T15:39:27.550Z,4.63
2022-09-24T15:41:54.328Z,5.25
2022-09-24T15:44:28.433Z,10.10
2022-09-24T15:46:58.419Z,6.35
2022-09-24T15:49:26.463Z,8.10
2022-09-24T15:51:57.315Z,5.18
2022-09-24T15:54:25.012Z,34.95
2022-09-24T15:56:52.762Z,19.02
2022-09-24T15:59:21.610Z,22.63
2022-09-24T16:01:51.161Z,25.13
2022-09-24T16:04:18.760Z,14.48
2022-09-24T16:06:45.637Z,5.35
2022-09-24T16:09:12.684Z,5.47
2022-09-24T16:11:39.456Z,4.45
2022-09-24T16:14:06.660Z,7.18
2022-09-24T16:16:34.143Z,6.47
2022-09-24T16:19:00.955Z,6.25
2022-09-24T16:21:27.866Z,4.55
2022-09-24T16:23:56.104Z,4.15
2022-09-24T16:26:23.397Z,5.20
2022-09-24T16:28:51.740Z,3.63
2022-09-24T16:31:19.732Z,3.47
2022-09-24T16:33:47.075Z,2.55
2022-09-24T16:36:14.125Z,2.80
2022-09-24T16:38:40.919Z,2.67
2022-09-24T16:41:08.037Z,3.10
2022-09-24T16:43:34.711Z,3.03
2022-09-24T16:46:03.856Z,3.67
2022-09-24T16:48:31.348Z,2.95
2022-09-24T16:51:09.488Z,3.40
2022-09-24T16:53:36.734Z,4.35
2022-09-24T16:56:04.641Z,5.00
2022-09-24T16:58:33.062Z,4.97
2022-09-24T17:00:59.888Z,4.95
2022-09-24T17:03:26.598Z,3.63
2022-09-24T17:05:53.372Z,3.20
2022-09-24T17:08:20.101Z,3.70
2022-09-24T17:10:52.001Z,4.35
2022-09-24T17:13:19.843Z,2.80
2022-09-24T17:15:46.654Z,2.88
2022-09-24T17:18:13.416Z,10.77
2022-09-24T17:20:40.145Z,14.45
2022-09-24T17:23:07.075Z,6.95
2022-09-24T17:25:33.768Z,6.95
2022-09-24T17:28:02.274Z,6.70
2022-09-24T17:30:29.069Z,7.05
2022-09-24T17:32:55.829Z,5.70
2022-09-24T17:35:23.046Z,5.85
2022-09-24T17:37:49.845Z,5.47
2022-09-24T17:40:22.973Z,5.63
2022-09-24T17:42:50.817Z,5.10
2022-09-24T17:45:17.622Z,4.72
2022-09-24T17:47:56.459Z,4.50
2022-09-24T17:50:24.278Z,5.55
2022-09-24T17:52:50.989Z,5.55
2022-09-24T17:55:17.784Z,4.70
2022-09-24T17:57:44.499Z,4.07
2022-09-24T18:00:11.972Z,4.10
2022-09-24T18:02:38.763Z,3.80
2022-09-24T18:05:07.442Z,3.40
2022-09-24T18:07:34.171Z,3.22
2022-09-24T18:10:00.967Z,3.78
2022-09-24T18:12:27.672Z,3.17
2022-09-24T18:14:55.097Z,2.88
2022-09-24T18:17:21.816Z,3.70
2022-09-24T18:19:48.520Z,2.92
2022-09-24T18:22:15.284Z,2.88
2022-09-24T18:24:42.201Z,3.35
2022-09-24T18:27:09.082Z,2.75
2022-09-24T18:29:37.522Z,2.90
2022-09-24T18:32:04.237Z,4.20
2022-09-24T18:34:31.340Z,4.97
2022-09-24T18:36:58.778Z,5.00
2022-09-24T18:39:25.870Z,5.03
2022-09-24T18:41:53.590Z,3.35
2022-09-24T18:44:20.736Z,2.80
2022-09-24T18:46:49.934Z,2.83
2022-09-24T18:49:17.713Z,2.67
2022-09-24T18:51:45.399Z,3.10
2022-09-24T18:54:14.273Z,2.88
2022-09-24T18:56:42.454Z,2.47
2022-09-24T18:59:15.452Z,2.53
2022-09-24T19:01:43.952Z,2.75
2022-09-24T19:04:12.979Z,2.47
2022-09-24T19:06:42.355Z,2.40
2022-09-24T19:09:10.500Z,2.58
2022-09-24T19:11:37.644Z,3.03
2022-09-24T19:14:04.426Z,2.75
2022-09-24T19:16:31.580Z,3.03
2022-09-24T19:18:59.644Z,3.20
2022-09-24T19:21:27.276Z,2.97
2022-09-24T19:23:56.446Z,3.33
2022-09-24T19:26:27.115Z,2.95
2022-09-24T19:28:54.301Z,2.93
2022-09-24T19:31:22.295Z,2.80
2022-09-24T19:33:50.382Z,3.20
2022-09-24T19:36:17.591Z,3.30
2022-09-24T19:38:44.915Z,2.45
2022-09-24T19:41:14.243Z,3.05
2022-09-24T19:43:43.791Z,3.47
2022-09-24T19:46:14.721Z,4.88
2022-09-24T19:48:44.501Z,5.78
2022-09-24T19:51:15.247Z,2.92
2022-09-24T19:53:43.043Z,2.90
2022-09-24T19:56:11.344Z,3.33
2022-09-24T19:58:38.313Z,3.35
2022-09-24T20:01:07.409Z,3.10
2022-09-24T20:03:38.634Z,2.90
2022-09-24T20:06:14.960Z,3.20
2022-09-24T20:08:43.247Z,2.83
2022-09-24T20:11:19.478Z,3.20
2022-09-24T20:13:47.492Z,3.20
2022-09-24T20:16:15.937Z,3.45
2022-09-24T20:18:43.598Z,3.05
2022-09-24T20:21:12.925Z,3.38
2022-09-24T20:23:40.902Z,3.13
2022-09-24T20:26:28.248Z,3.22
2022-09-24T20:28:54.959Z,2.92
2022-09-24T20:31:22.768Z,2.92
2022-09-24T20:33:50.059Z,2.80
2022-09-24T20:36:21.915Z,3.63
2022-09-24T20:38:50.923Z,3.53
2022-09-24T20:41:23.975Z,3.22
2022-09-24T20:43:52.234Z,2.90
2022-09-24T20:46:24.271Z,3.33
2022-09-24T20:48:58.324Z,4.00
2022-09-24T20:51:26.488Z,3.50
2022-09-24T20:53:54.139Z,3.08
2022-09-24T20:56:21.758Z,3.08
2022-09-24T20:58:50.837Z,2.45
2022-09-24T21:01:18.703Z,3.00
2022-09-24T21:03:47.840Z,3.25
2022-09-24T21:06:15.604Z,3.22
2022-09-24T21:08:44.587Z,3.13
2022-09-24T21:11:20.815Z,2.67
2022-09-24T21:13:52.340Z,2.88
2022-09-24T21:16:22.279Z,2.92
2022-09-24T21:18:50.372Z,3.00
2022-09-24T21:21:20.289Z,2.97
2022-09-24T21:23:49.933Z,3.40
2022-09-24T21:26:21.206Z,2.65
2022-09-24T21:28:50.458Z,3.08
2022-09-24T21:31:21.493Z,2.53
2022-09-24T21:33:52.691Z,2.90
2022-09-24T21:36:24.563Z,3.13
2022-09-24T21:38:55.635Z,2.83
2022-09-24T21:41:24.825Z,3.17
2022-09-24T21:43:53.658Z,3.20
2022-09-24T21:46:20.691Z,2.90
2022-09-24T21:48:47.840Z,2.78
2022-09-24T21:51:20.298Z,2.78
2022-09-24T21:53:51.229Z,2.88
2022-09-24T21:56:19.539Z,3.20
2022-09-24T21:58:47.419Z,2.95
2022-09-24T22:01:40.466Z,2.55
2022-09-24T22:04:07.999Z,2.80
2022-09-24T22:06:35.162Z,2.92
2022-09-24T22:09:05.178Z,2.70
2022-09-24T22:11:32.731Z,2.65
2022-09-24T22:14:01.252Z,2.65
2022-09-24T22:16:29.560Z,2.55
2022-09-24T22:18:56.526Z,3.55
2022-09-24T22:21:23.241Z,2.70
2022-09-24T22:23:49.972Z,2.95
2022-09-24T22:26:18.749Z,2.90
2022-09-24T22:28:45.881Z,2.40
2022-09-24T22:31:15.649Z,3.00
2022-09-24T22:34:00.953Z,2.70
2022-09-24T22:36:29.855Z,3.03
2022-09-24T22:38:57.505Z,2.78
2022-09-24T22:41:25.479Z,3.15
2022-09-24T22:43:52.617Z,2.92
2022-09-24T22:46:19.824Z,2.65
2022-09-24T22:48:47.674Z,2.05
2022-09-24T22:51:15.162Z,2.70
2022-09-24T22:53:42.574Z,2.60
2022-09-24T22:56:15.972Z,2.70
2022-09-24T22:58:48.249Z,2.72
2022-09-24T23:01:17.616Z,3.22
2022-09-24T23:03:45.388Z,3.00
2022-09-24T23:06:12.413Z,2.60
2022-09-24T23:08:40.956Z,3.08
2022-09-24T23:11:10.659Z,3.15
2022-09-24T23:13:39.007Z,2.80
2022-09-24T23:16:13.274Z,2.88
2022-09-24T23:18:42.337Z,2.63
2022-09-24T23:21:12.504Z,2.70
2022-09-24T23:23:39.746Z,2.83
2022-09-24T23:26:18.420Z,2.90
2022-09-24T23:28:47.900Z,2.78
2022-09-24T23:31:15.170Z,2.92
2022-09-24T23:33:42.674Z,2.78
2022-09-24T23:36:12.940Z,2.72
2022-09-24T23:38:41.031Z,2.65
2022-09-24T23:41:09.152Z,2.55
2022-09-24T23:43:36.281Z,2.65
2022-09-24T23:46:04.157Z,2.10
2022-09-24T23:48:31.819Z,2.63
2022-09-24T23:50:58.640Z,2.63
2022-09-24T23:53:26.050Z,2.58
2022-09-24T23:55:54.209Z,2.67
2022-09-24T23:58:22.509Z,2.65
